Time;durP1;ratioP1;P1;durP2;ratioP2;P2;SDS_P1;SDS_P2;PMS_P1;PMS_P2;Temp;Humidity;BMP_temperature;BMP_pressure;BME280_temperature;BME280_humidity;BME280_pressure;Samples;Min_cycle;Max_cycle;Signal;HPM_P1;HPM_P2
2022/06/10 00:01:21;;;;;;;;;;;21.80;46.00;;;;;;5165018;27;19933;-54
2022/06/10 00:03:47;;;;;;;;;;;21.80;46.00;;;;;;5151523;27;19922;-57
2022/06/10 00:06:14;;;;;;;;;;;21.70;46.10;;;;;;5162850;27;20018;-56
2022/06/10 00:08:41;;;;;;;;;;;21.80;46.00;;;;;;5163036;27;20013;-53
2022/06/10 00:11:07;;;;;;;;;;;21.80;46.00;;;;;;5169833;27;19922;-57
2022/06/10 00:13:34;;;;;;;;;;;21.60;46.30;;;;;;5145792;27;20324;-56
2022/06/10 00:16:00;;;;;;;;;;;21.70;46.30;;;;;;5169978;27;19938;-56
2022/06/10 00:18:26;;;;;;;;;;;21.80;46.10;;;;;;5164438;27;20406;-55
2022/06/10 00:20:52;;;;;;;;;;;21.80;46.00;;;;;;5164334;27;19926;-58
2022/06/10 00:23:18;;;;;;;;;;;21.80;45.90;;;;;;5169707;27;19930;-56
2022/06/10 00:25:45;;;;;;;;;;;21.90;45.70;;;;;;5161962;27;19937;-57
2022/06/10 00:28:11;;;;;;;;;;;21.90;45.70;;;;;;5163300;27;20123;-56
2022/06/10 00:30:37;;;;;;;;;;;22.00;45.50;;;;;;5169653;27;19933;-57
2022/06/10 00:33:03;;;;;;;;;;;22.00;45.40;;;;;;5164271;27;19927;-54
2022/06/10 00:35:28;;;;;;;;;;;22.00;45.20;;;;;;5169804;27;20311;-56
2022/06/10 00:37:54;;;;;;;;;;;22.00;45.30;;;;;;5164409;27;19923;-57
2022/06/10 00:40:22;;;;;;;;;;;22.00;45.20;;;;;;5164056;27;19970;-56
2022/06/10 00:42:48;;;;;;;;;;;21.90;45.30;;;;;;5168217;27;19974;-57
2022/06/10 00:45:33;;;;;;;;;;;21.80;45.60;;;;;;5162477;27;19927;-58
2022/06/10 00:47:58;;;;;;;;;;;21.70;45.90;;;;;;5163680;27;19923;-57
2022/06/10 00:50:26;;;;;;;;;;;21.70;45.90;;;;;;5150687;27;19926;-56
2022/06/10 00:52:54;;;;;;;;;;;21.70;46.00;;;;;;5164149;27;19923;-57
2022/06/10 00:55:28;;;;;;;;;;;21.50;46.10;;;;;;5145346;27;20406;-55
2022/06/10 00:57:59;;;;;;;;;;;21.60;46.00;;;;;;5165673;27;19933;-56
2022/06/10 01:00:25;;;;;;;;;;;21.70;45.90;;;;;;5143247;27;19927;-55
2022/06/10 01:02:50;;;;;;;;;;;21.70;45.90;;;;;;5161440;27;20228;-58
2022/06/10 01:05:20;;;;;;;;;;;21.60;46.10;;;;;;5168600;27;19923;-56
2022/06/10 01:07:51;;;;;;;;;;;21.60;46.10;;;;;;5163511;27;19922;-57
2022/06/10 01:10:17;;;;;;;;;;;21.60;46.30;;;;;;5168914;27;19929;-56
2022/06/10 01:13:01;;;;;;;;;;;21.60;46.10;;;;;;5163815;27;20335;-58
2022/06/10 01:15:30;;;;;;;;;;;21.70;46.20;;;;;;5163951;27;19927;-56
2022/06/10 01:17:55;;;;;;;;;;;21.70;46.10;;;;;;5169222;27;20409;-57
2022/06/10 01:20:25;;;;;;;;;;;21.60;46.20;;;;;;5161451;27;20130;-57
2022/06/10 01:23:09;;;;;;;;;;;21.50;46.30;;;;;;5162250;27;19923;-57
2022/06/10 01:25:41;;;;;;;;;;;21.50;46.40;;;;;;5150012;27;19947;-55
2022/06/10 01:28:26;;;;;;;;;;;21.50;46.30;;;;;;5163301;27;19930;-55
2022/06/10 01:30:57;;;;;;;;;;;21.50;46.40;;;;;;5163306;27;20440;-58
2022/06/10 01:33:29;;;;;;;;;;;21.70;46.10;;;;;;5150450;27;19922;-57
2022/06/10 01:36:01;;;;;;;;;;;21.70;46.00;;;;;;5144791;27;19927;-55
2022/06/10 01:38:32;;;;;;;;;;;21.60;46.20;;;;;;5142300;27;19923;-54
2022/06/10 01:41:23;;;;;;;;;;;21.50;46.30;;;;;;5148710;27;19984;-55
2022/06/10 01:43:52;;;;;;;;;;;21.50;46.40;;;;;;5145277;27;20339;-56
2022/06/10 01:46:30;;;;;;;;;;;21.60;46.40;;;;;;5163261;27;20014;-54
2022/06/10 01:49:03;;;;;;;;;;;21.70;46.20;;;;;;5168737;27;20013;-56
2022/06/10 01:51:35;;;;;;;;;;;21.80;46.00;;;;;;5144736;27;19924;-57
2022/06/10 01:54:03;;;;;;;;;;;21.70;46.00;;;;;;5162974;27;20022;-58
2022/06/10 01:56:31;;;;;;;;;;;21.80;45.80;;;;;;5148242;27;19949;-54
2022/06/10 01:59:08;;;;;;;;;;;21.70;46.10;;;;;;5142700;27;19926;-58
2022/06/10 02:01:38;;;;;;;;;;;21.70;46.20;;;;;;5142825;27;19950;-56
2022/06/10 02:04:09;;;;;;;;;;;21.80;45.90;;;;;;5149723;27;20426;-55
2022/06/10 02:06:36;;;;;;;;;;;21.70;45.90;;;;;;5144375;27;19974;-56
2022/06/10 02:09:04;;;;;;;;;;;21.70;45.90;;;;;;5144522;27;20013;-58
2022/06/10 02:11:30;;;;;;;;;;;21.50;46.40;;;;;;5168377;27;20366;-57
2022/06/10 02:14:08;;;;;;;;;;;21.50;46.40;;;;;;5162306;27;19927;-56
2022/06/10 02:16:36;;;;;;;;;;;21.60;46.20;;;;;;5160752;27;20162;-56
2022/06/10 02:19:04;;;;;;;;;;;21.60;46.20;;;;;;5149237;27;19922;-56
2022/06/10 02:21:31;;;;;;;;;;;21.50;46.50;;;;;;5162609;27;19922;-55
2022/06/10 02:23:59;;;;;;;;;;;21.40;46.60;;;;;;5167195;27;19970;-57
2022/06/10 02:26:24;;;;;;;;;;;21.40;46.80;;;;;;5146078;27;20413;-56
2022/06/10 02:28:52;;;;;;;;;;;21.40;46.70;;;;;;5144231;27;19923;-55
2022/06/10 02:31:19;;;;;;;;;;;21.40;46.70;;;;;;5167914;27;19930;-55
2022/06/10 02:33:44;;;;;;;;;;;21.30;46.80;;;;;;5141672;27;20382;-58
2022/06/10 02:36:10;;;;;;;;;;;21.30;47.00;;;;;;5161223;27;19975;-52
2022/06/10 02:38:45;;;;;;;;;;;21.30;47.00;;;;;;5167631;27;20009;-56
2022/06/10 02:41:18;;;;;;;;;;;21.30;46.90;;;;;;5162206;27;20013;-58
2022/06/10 02:43:44;;;;;;;;;;;21.20;47.00;;;;;;5162170;27;19949;-55
2022/06/10 02:46:18;;;;;;;;;;;21.20;47.20;;;;;;5167679;27;20324;-57
2022/06/10 02:48:49;;;;;;;;;;;21.10;47.20;;;;;;5143524;27;19923;-56
2022/06/10 02:51:16;;;;;;;;;;;21.20;47.00;;;;;;5141037;27;19923;-55
2022/06/10 02:53:42;;;;;;;;;;;21.10;47.30;;;;;;5165965;27;19971;-56
2022/06/10 02:56:21;;;;;;;;;;;21.10;47.10;;;;;;5161560;27;19986;-56
2022/06/10 03:01:44;;;;;;;;;;;21.10;47.20;;;;;;5152070;27;20013;-55
2022/06/10 03:04:13;;;;;;;;;;;21.10;47.20;;;;;;5162126;27;20266;-58
2022/06/10 03:07:00;;;;;;;;;;;21.30;46.90;;;;;;5163607;27;19951;-57
2022/06/10 03:09:36;;;;;;;;;;;21.30;47.00;;;;;;5166289;27;19929;-56
2022/06/10 03:12:11;;;;;;;;;;;21.20;47.20;;;;;;5141603;27;20009;-57
2022/06/10 03:14:56;;;;;;;;;;;21.20;47.10;;;;;;5143099;27;20017;-58
2022/06/10 03:17:42;;;;;;;;;;;21.30;46.90;;;;;;5167350;27;19923;-55
2022/06/10 03:20:11;;;;;;;;;;;21.10;47.20;;;;;;5162053;27;19922;-55
2022/06/10 03:22:52;;;;;;;;;;;21.10;47.10;;;;;;5161856;27;19973;-56
2022/06/10 03:25:23;;;;;;;;;;;21.20;46.90;;;;;;5167104;27;20018;-56
2022/06/10 03:28:12;;;;;;;;;;;21.10;46.90;;;;;;5141868;27;19979;-56
2022/06/10 03:30:40;;;;;;;;;;;21.10;47.00;;;;;;5148590;27;19925;-56
2022/06/10 03:33:32;;;;;;;;;;;21.10;47.20;;;;;;5147991;27;19927;-55
2022/06/10 03:36:02;;;;;;;;;;;21.00;47.10;;;;;;5157151;27;19966;-57
2022/06/10 03:38:29;;;;;;;;;;;21.20;47.00;;;;;;5161403;27;19922;-55
2022/06/10 03:40:56;;;;;;;;;;;21.20;46.90;;;;;;5167021;27;19927;-54
2022/06/10 03:43:22;;;;;;;;;;;21.20;46.80;;;;;;5161448;27;20293;-55
2022/06/10 03:45:50;;;;;;;;;;;21.10;46.90;;;;;;5142017;27;19962;-56
2022/06/10 03:48:18;;;;;;;;;;;21.10;47.20;;;;;;5145758;27;19946;-56
2022/06/10 03:50:44;;;;;;;;;;;21.10;47.20;;;;;;5160705;27;20338;-55
2022/06/10 03:53:13;;;;;;;;;;;21.00;47.20;;;;;;5161236;27;19926;-53
2022/06/10 03:55:40;;;;;;;;;;;21.00;47.40;;;;;;5166761;27;19925;-55
2022/06/10 03:58:05;;;;;;;;;;;21.10;47.10;;;;;;5161189;27;19970;-57
2022/06/10 04:00:31;;;;;;;;;;;21.00;47.20;;;;;;5166811;27;20397;-55
2022/06/10 04:02:57;;;;;;;;;;;21.20;47.00;;;;;;5164373;27;19926;-55
2022/06/10 04:05:23;;;;;;;;;;;21.20;46.90;;;;;;5163191;27;19939;-57
2022/06/10 04:07:49;;;;;;;;;;;21.30;46.60;;;;;;5169003;27;20323;-57
2022/06/10 04:10:16;;;;;;;;;;;21.20;46.70;;;;;;5164697;27;19929;-58
2022/06/10 04:12:42;;;;;;;;;;;21.20;46.70;;;;;;5164739;27;20335;-57
2022/06/10 04:15:08;;;;;;;;;;;21.10;46.60;;;;;;5170492;27;19975;-57
2022/06/10 04:17:33;;;;;;;;;;;21.10;46.60;;;;;;5164649;27;20388;-55
2022/06/10 04:19:59;;;;;;;;;;;21.20;46.70;;;;;;5151540;27;19970;-56
2022/06/10 04:22:25;;;;;;;;;;;21.20;46.50;;;;;;5164403;27;20002;-57
2022/06/10 04:24:51;;;;;;;;;;;21.10;46.60;;;;;;5162207;27;20390;-55
2022/06/10 04:27:17;;;;;;;;;;;21.10;46.80;;;;;;5169277;27;19926;-55
2022/06/10 04:29:43;;;;;;;;;;;21.20;46.60;;;;;;5164113;27;20227;-56
2022/06/10 04:32:09;;;;;;;;;;;21.20;46.60;;;;;;5164296;27;19927;-56
2022/06/10 04:34:36;;;;;;;;;;;21.10;46.70;;;;;;5169888;27;19923;-54
2022/06/10 04:37:03;;;;;;;;;;;21.20;46.60;;;;;;5164424;27;20038;-56
2022/06/10 04:39:28;;;;;;;;;;;21.20;46.50;;;;;;5167731;27;19923;-57
2022/06/10 04:41:54;;;;;;;;;;;21.10;46.70;;;;;;5165124;27;19965;-55
2022/06/10 04:44:20;;;;;;;;;;;21.20;46.70;;;;;;5162424;27;19969;-56
2022/06/10 04:46:46;;;;;;;;;;;21.20;46.70;;;;;;5169369;27;20021;-57
2022/06/10 04:49:12;;;;;;;;;;;21.20;46.70;;;;;;5163770;27;19926;-55
2022/06/10 04:51:38;;;;;;;;;;;21.10;46.80;;;;;;5164000;27;19922;-56
2022/06/10 04:54:04;;;;;;;;;;;21.20;46.60;;;;;;5169626;27;19971;-56
2022/06/10 04:56:30;;;;;;;;;;;21.30;46.40;;;;;;5164089;27;20560;-56
2022/06/10 04:58:56;;;;;;;;;;;21.20;46.50;;;;;;5164660;27;19937;-54
2022/06/10 05:01:22;;;;;;;;;;;21.20;46.40;;;;;;5166378;27;20339;-53
2022/06/10 05:03:47;;;;;;;;;;;21.30;46.40;;;;;;5163050;27;19923;-56
2022/06/10 05:06:13;;;;;;;;;;;21.30;46.40;;;;;;5169043;27;19923;-57
2022/06/10 05:08:39;;;;;;;;;;;21.30;46.30;;;;;;5163718;27;20021;-57
2022/06/10 05:11:05;;;;;;;;;;;21.30;46.30;;;;;;5163820;27;19955;-58
2022/06/10 05:13:31;;;;;;;;;;;21.30;46.30;;;;;;5168510;27;20021;-58
2022/06/10 05:15:57;;;;;;;;;;;21.30;46.50;;;;;;5163655;27;19981;-57
2022/06/10 05:18:23;;;;;;;;;;;21.30;46.30;;;;;;5162304;27;20374;-57
2022/06/10 05:20:49;;;;;;;;;;;21.50;46.00;;;;;;5167396;27;19922;-57
2022/06/10 05:23:15;;;;;;;;;;;21.50;45.90;;;;;;5163029;27;19936;-58
2022/06/10 05:25:41;;;;;;;;;;;21.70;45.60;;;;;;5168796;27;20321;-58
2022/06/10 05:28:07;;;;;;;;;;;21.80;45.20;;;;;;5163618;27;19923;-55
2022/06/10 05:30:33;;;;;;;;;;;21.80;45.10;;;;;;5163631;27;19969;-56
2022/06/10 05:32:59;;;;;;;;;;;21.80;45.00;;;;;;5169060;27;19922;-55
2022/06/10 05:35:25;;;;;;;;;;;21.80;44.90;;;;;;5163102;27;19923;-57
2022/06/10 05:37:51;;;;;;;;;;;21.80;44.80;;;;;;5161063;27;20037;-57
2022/06/10 05:40:17;;;;;;;;;;;21.90;44.90;;;;;;5167587;27;19926;-57
2022/06/10 05:42:45;;;;;;;;;;;21.90;44.70;;;;;;5143477;27;20294;-54
2022/06/10 05:45:13;;;;;;;;;;;21.90;44.90;;;;;;5148981;27;19927;-55
2022/06/10 05:47:39;;;;;;;;;;;22.00;44.90;;;;;;5164084;27;19923;-56
2022/06/10 05:50:08;;;;;;;;;;;22.00;44.90;;;;;;5163163;27;19930;-55
2022/06/10 05:52:33;;;;;;;;;;;22.00;45.00;;;;;;5168327;27;19949;-59
2022/06/10 05:55:00;;;;;;;;;;;22.00;45.00;;;;;;5161586;27;20370;-56
2022/06/10 05:57:26;;;;;;;;;;;22.00;44.80;;;;;;5161109;27;19955;-57
2022/06/10 05:59:53;;;;;;;;;;;22.10;44.90;;;;;;5168011;27;19976;-56
2022/06/10 06:02:19;;;;;;;;;;;22.10;45.00;;;;;;5162738;27;19922;-58
2022/06/10 06:04:45;;;;;;;;;;;22.20;44.70;;;;;;5163128;27;20296;-55
2022/06/10 06:07:14;;;;;;;;;;;22.10;44.90;;;;;;5168365;27;19942;-54
2022/06/10 06:09:40;;;;;;;;;;;22.10;45.00;;;;;;5162866;27;20542;-56
2022/06/10 06:12:06;;;;;;;;;;;22.10;45.40;;;;;;5168154;27;19935;-58
2022/06/10 06:14:32;;;;;;;;;;;22.20;45.30;;;;;;5160430;27;19931;-56
2022/06/10 06:16:59;;;;;;;;;;;22.10;45.40;;;;;;5161503;27;20021;-58
2022/06/10 06:19:25;;;;;;;;;;;22.20;45.40;;;;;;5167589;27;19927;-56
2022/06/10 06:21:51;;;;;;;;;;;22.30;45.20;;;;;;5162470;27;19923;-57
2022/06/10 06:24:17;;;;;;;;;;;22.30;45.20;;;;;;5162353;27;20077;-57
2022/06/10 06:26:42;;;;;;;;;;;22.30;45.00;;;;;;5168355;27;19961;-56
2022/06/10 06:29:09;;;;;;;;;;;21.30;46.70;;;;;;5160550;27;19927;-58
2022/06/10 06:31:35;;;;;;;;;;;21.10;47.10;;;;;;5166933;27;19923;-57
2022/06/10 06:34:00;;;;;;;;;;;21.30;47.70;;;;;;5140869;27;20056;-57
2022/06/10 06:36:27;;;;;;;;;;;21.40;47.60;;;;;;5143438;27;20425;-58
2022/06/10 06:38:52;;;;;;;;;;;21.60;47.20;;;;;;5167688;27;20416;-58
2022/06/10 06:41:18;;;;;;;;;;;21.50;47.30;;;;;;5162581;27;19923;-60
2022/06/10 06:43:44;;;;;;;;;;;21.50;46.90;;;;;;5162582;27;20672;-57
2022/06/10 06:46:14;;;;;;;;;;;21.60;46.60;;;;;;5167815;27;19942;-57
2022/06/10 06:48:40;;;;;;;;;;;21.70;46.50;;;;;;5162330;27;19991;-58
2022/06/10 06:51:06;;;;;;;;;;;21.70;46.70;;;;;;5163354;27;19935;-57
2022/06/10 06:53:32;;;;;;;;;;;21.60;46.80;;;;;;5163796;27;19930;-57
2022/06/10 06:55:58;;;;;;;;;;;21.60;47.10;;;;;;5162077;27;20021;-58
2022/06/10 06:58:24;;;;;;;;;;;21.50;47.10;;;;;;5167518;27;19923;-59
2022/06/10 07:00:50;;;;;;;;;;;21.60;46.80;;;;;;5143618;27;19923;-58
2022/06/10 07:03:15;;;;;;;;;;;21.60;46.70;;;;;;5162628;27;20387;-59
2022/06/10 07:05:42;;;;;;;;;;;21.70;46.50;;;;;;5167571;27;19978;-59
2022/06/10 07:08:08;;;;;;;;;;;21.70;46.40;;;;;;5161249;27;19998;-58
2022/06/10 07:10:34;;;;;;;;;;;21.70;46.40;;;;;;5160289;27;19926;-59
2022/06/10 07:13:00;;;;;;;;;;;21.80;46.60;;;;;;5166865;27;20010;-59
2022/06/10 07:15:25;;;;;;;;;;;21.70;46.70;;;;;;5161895;27;19971;-59
2022/06/10 07:17:51;;;;;;;;;;;21.70;46.80;;;;;;5167442;27;19930;-60
2022/06/10 07:20:24;;;;;;;;;;;21.70;46.80;;;;;;5162211;27;19926;-58
2022/06/10 07:22:50;;;;;;;;;;;21.80;46.60;;;;;;5162517;27;19929;-58
2022/06/10 07:25:16;;;;;;;;;;;21.70;46.60;;;;;;5167392;27;19923;-59
2022/06/10 07:27:43;;;;;;;;;;;21.80;46.30;;;;;;5160057;27;20279;-60
2022/06/10 07:30:09;;;;;;;;;;;21.80;46.20;;;;;;5160475;27;20030;-59
2022/06/10 07:32:34;;;;;;;;;;;21.80;46.00;;;;;;5166888;27;19926;-58
2022/06/10 07:35:00;;;;;;;;;;;21.90;46.10;;;;;;5162078;27;19935;-59
2022/06/10 07:37:26;;;;;;;;;;;21.80;46.60;;;;;;5169620;27;19990;-59
2022/06/10 07:39:52;;;;;;;;;;;21.80;46.80;;;;;;5166041;27;19930;-59
2022/06/10 07:42:18;;;;;;;;;;;21.70;47.00;;;;;;5165786;27;19931;-59
2022/06/10 07:44:44;;;;;;;;;;;21.80;46.70;;;;;;5170146;27;19975;-58
2022/06/10 07:47:11;;;;;;;;;;;21.80;46.60;;;;;;5163737;27;19922;-58
2022/06/10 07:49:37;;;;;;;;;;;21.80;46.40;;;;;;5164868;27;19926;-59
2022/06/10 07:52:03;;;;;;;;;;;21.80;46.30;;;;;;5152098;27;20381;-59
2022/06/10 07:54:30;;;;;;;;;;;21.90;46.20;;;;;;5165906;27;19933;-58
2022/06/10 07:56:55;;;;;;;;;;;21.80;46.40;;;;;;5168160;27;19922;-57
2022/06/10 07:59:21;;;;;;;;;;;21.80;46.60;;;;;;5168726;27;19929;-59
2022/06/10 08:01:47;;;;;;;;;;;21.80;46.70;;;;;;5165609;27;19923;-58
2022/06/10 08:04:13;;;;;;;;;;;21.80;46.60;;;;;;5168877;27;20013;-59
2022/06/10 08:06:40;;;;;;;;;;;21.80;46.50;;;;;;5163851;27;19973;-59
2022/06/10 08:09:07;;;;;;;;;;;21.90;46.30;;;;;;5165073;27;19926;-59
2022/06/10 08:11:33;;;;;;;;;;;21.90;46.10;;;;;;5170464;27;20403;-59
2022/06/10 08:13:59;;;;;;;;;;;21.90;46.10;;;;;;5165431;27;20284;-59
2022/06/10 08:16:25;;;;;;;;;;;21.90;46.10;;;;;;5165339;27;19922;-57
2022/06/10 08:18:51;;;;;;;;;;;21.90;46.50;;;;;;5170234;27;20018;-59
2022/06/10 08:24:01;;;;;;;;;;;21.80;46.60;;;;;;5146827;27;19923;-57
2022/06/10 08:26:27;;;;;;;;;;;21.90;46.60;;;;;;5148683;27;19923;-59
2022/06/10 08:28:54;;;;;;;;;;;21.70;46.20;;;;;;5146009;27;19972;-58
2022/06/10 08:31:21;;;;;;;;;;;21.30;45.80;;;;;;5151303;27;19927;-57
2022/06/10 08:33:46;;;;;;;;;;;21.10;46.10;;;;;;5146242;27;19923;-59
2022/06/10 08:36:13;;;;;;;;;;;21.40;47.40;;;;;;5146136;27;19975;-59
2022/06/10 08:38:42;;;;;;;;;;;21.50;47.80;;;;;;5151107;27;19957;-58
2022/06/10 08:41:10;;;;;;;;;;;21.80;47.40;;;;;;5144139;27;20401;-59
2022/06/10 08:43:39;;;;;;;;;;;21.70;47.50;;;;;;5143503;27;20148;-59
2022/06/10 08:46:11;;;;;;;;;;;21.70;47.30;;;;;;5150600;27;20346;-58
2022/06/10 08:49:03;;;;;;;;;;;21.60;47.20;;;;;;5143470;27;19923;-55
2022/06/10 08:51:41;;;;;;;;;;;21.80;46.90;;;;;;5121994;27;20433;-56
2022/06/10 08:54:15;;;;;;;;;;;21.80;46.40;;;;;;5151136;27;20386;-58
2022/06/10 08:56:42;;;;;;;;;;;21.80;46.20;;;;;;5146505;27;20426;-55
2022/06/10 08:59:20;;;;;;;;;;;21.80;45.90;;;;;;5145057;27;19983;-53
2022/06/10 09:02:05;;;;;;;;;;;21.80;45.90;;;;;;5148342;27;20006;-55
2022/06/10 09:04:41;;;;;;;;;;;21.90;45.90;;;;;;5146038;27;20026;-53
2022/06/10 09:07:11;;;;;;;;;;;21.90;46.00;;;;;;5146348;27;20018;-54
2022/06/10 09:09:37;;;;;;;;;;;21.90;45.80;;;;;;5150641;27;19922;-53
2022/06/10 09:12:11;;;;;;;;;;;21.90;45.60;;;;;;5145115;27;20006;-56
2022/06/10 09:14:36;;;;;;;;;;;22.00;45.30;;;;;;5144972;27;20230;-54
2022/06/10 09:17:05;;;;;;;;;;;22.10;44.80;;;;;;5149586;27;19923;-53
2022/06/10 09:19:34;;;;;;;;;;;22.10;44.50;;;;;;5144715;27;19927;-55
2022/06/10 09:22:19;;;;;;;;;;;21.80;44.30;;;;;;5165033;27;20018;-56
2022/06/10 09:24:54;;;;;;;;;;;20.10;47.10;;;;;;5170587;27;19955;-51
2022/06/10 09:27:24;;;;;;;;;;;21.00;45.60;;;;;;5147590;27;19923;-52
2022/06/10 09:29:50;;;;;;;;;;;21.50;44.10;;;;;;5128655;27;19923;-55
2022/06/10 09:32:48;;;;;;;;;;;21.70;43.60;;;;;;5168389;27;19929;-50
2022/06/10 09:35:13;;;;;;;;;;;21.80;43.60;;;;;;5107606;27;20018;-50
2022/06/10 09:37:43;;;;;;;;;;;21.80;43.50;;;;;;5146171;27;20370;-51
2022/06/10 09:40:36;;;;;;;;;;;21.80;43.40;;;;;;5151255;27;20017;-49
2022/06/10 09:43:20;;;;;;;;;;;21.90;43.10;;;;;;5165425;27;19927;-51
2022/06/10 09:46:04;;;;;;;;;;;21.90;43.10;;;;;;5165487;27;20386;-52
2022/06/10 09:48:41;;;;;;;;;;;21.90;43.20;;;;;;5170439;27;20005;-51
2022/06/10 09:51:18;;;;;;;;;;;22.00;43.00;;;;;;5165510;27;19927;-51
2022/06/10 09:53:45;;;;;;;;;;;22.00;43.10;;;;;;5164900;27;19923;-52
2022/06/10 09:56:30;;;;;;;;;;;22.00;43.20;;;;;;5168423;27;20330;-50
2022/06/10 09:59:17;;;;;;;;;;;22.00;43.30;;;;;;5164752;27;19935;-51
2022/06/10 10:01:51;;;;;;;;;;;22.10;43.10;;;;;;5146750;27;20348;-53
2022/06/10 10:04:36;;;;;;;;;;;22.10;43.30;;;;;;5169779;27;20341;-52
2022/06/10 10:07:28;;;;;;;;;;;21.90;43.50;;;;;;5147617;27;19926;-52
2022/06/10 10:10:02;;;;;;;;;;;20.20;47.30;;;;;;5159941;27;19923;-48
2022/06/10 10:12:32;;;;;;;;;;;20.30;48.20;;;;;;5146867;27;20386;-53
2022/06/10 10:15:10;;;;;;;;;;;21.10;46.00;;;;;;5148594;27;19923;-49
2022/06/10 10:18:08;;;;;;;;;;;21.50;44.90;;;;;;5164897;27;19922;-52
2022/06/10 10:20:54;;;;;;;;;;;21.60;44.30;;;;;;5107711;27;20157;-50
2022/06/10 10:23:21;;;;;;;;;;;21.80;43.90;;;;;;5169298;27;20364;-50
2022/06/10 10:25:47;;;;;;;;;;;21.90;43.70;;;;;;5146642;27;19929;-49
2022/06/10 10:28:23;;;;;;;;;;;21.90;43.60;;;;;;5164836;27;19927;-49
2022/06/10 10:30:58;;;;;;;;;;;22.00;43.30;;;;;;5148381;27;20020;-52
2022/06/10 10:33:24;;;;;;;;;;;22.00;43.30;;;;;;5163146;27;19927;-50
2022/06/10 10:35:52;;;;;;;;;;;21.40;43.70;;;;;;5164326;27;19927;-51
2022/06/10 10:38:32;;;;;;;;;;;21.20;43.10;;;;;;5168700;27;19978;-48
2022/06/10 10:40:58;;;;;;;;;;;21.00;43.00;;;;;;5165089;27;20010;-49
2022/06/10 10:43:28;;;;;;;;;;;21.40;44.90;;;;;;5147964;27;20009;-50
2022/06/10 10:46:03;;;;;;;;;;;21.70;44.60;;;;;;5149913;27;19937;-46
2022/06/10 10:48:43;;;;;;;;;;;21.80;44.00;;;;;;5165211;27;19933;-45
2022/06/10 10:51:09;;;;;;;;;;;21.80;43.70;;;;;;5147082;27;19927;-50
2022/06/10 10:53:40;;;;;;;;;;;21.90;43.30;;;;;;5167563;27;19927;-46
2022/06/10 10:56:06;;;;;;;;;;;22.00;43.00;;;;;;5165525;27;19929;-45
2022/06/10 10:58:41;;;;;;;;;;;22.00;42.90;;;;;;5169064;27;19923;-48
2022/06/10 11:01:08;;;;;;;;;;;22.10;42.90;;;;;;5165469;27;19969;-46
2022/06/10 11:03:33;;;;;;;;;;;22.10;42.90;;;;;;5146601;27;20045;-46
2022/06/10 11:06:00;;;;;;;;;;;22.10;43.00;;;;;;5169003;27;19993;-47
2022/06/10 11:08:35;;;;;;;;;;;22.10;43.00;;;;;;5163280;27;19930;-47
2022/06/10 11:11:12;;;;;;;;;;;22.20;43.00;;;;;;5163361;27;19923;-48
2022/06/10 11:13:41;;;;;;;;;;;22.20;43.00;;;;;;5132399;27;20001;-47
2022/06/10 11:16:35;;;;;;;;;;;21.50;44.10;;;;;;5163519;27;19945;-49
2022/06/10 11:19:04;;;;;;;;;;;20.10;47.00;;;;;;5163130;27;20018;-50
2022/06/10 11:21:30;;;;;;;;;;;20.70;46.30;;;;;;5168469;27;20301;-51
2022/06/10 11:23:57;;;;;;;;;;;21.40;44.60;;;;;;5163331;27;19975;-51
2022/06/10 11:26:25;;;;;;;;;;;21.80;43.60;;;;;;5161559;27;20014;-53
2022/06/10 11:29:03;;;;;;;;;;;21.90;43.20;;;;;;5167025;27;19923;-51
2022/06/10 11:31:35;;;;;;;;;;;22.00;43.10;;;;;;5162844;27;20003;-50
2022/06/10 11:34:00;;;;;;;;;;;22.00;43.10;;;;;;5163024;27;19923;-51
2022/06/10 11:36:27;;;;;;;;;;;22.10;42.90;;;;;;5168544;27;19938;-52
2022/06/10 11:39:14;;;;;;;;;;;22.10;42.80;;;;;;5163200;27;20289;-52
2022/06/10 11:41:40;;;;;;;;;;;22.00;42.80;;;;;;5141750;27;19926;-52
2022/06/10 11:44:11;;;;;;;;;;;22.10;42.70;;;;;;5167181;27;19934;-49
2022/06/10 11:46:47;;;;;;;;;;;22.00;42.60;;;;;;5161363;27;19927;-49
2022/06/10 11:49:27;;;;;;;;;;;20.30;46.10;;;;;;5164238;27;20435;-55
2022/06/10 11:52:13;;;;;;;;;;;20.10;47.40;;;;;;5167950;27;19965;-48
2022/06/10 11:55:03;;;;;;;;;;;21.10;45.20;;;;;;5161816;27;19922;-47
2022/06/10 12:00:34;;;;;;;;;;;21.80;43.60;;;;;;5152071;27;19930;-49
2022/06/10 12:03:06;;;;;;;;;;;21.80;43.30;;;;;;5160394;27;20342;-48
2022/06/10 12:05:47;;;;;;;;;;;21.90;43.20;;;;;;5160843;27;19966;-47
2022/06/10 12:08:39;;;;;;;;;;;22.00;43.20;;;;;;5147897;27;19954;-52
2022/06/10 12:11:24;;;;;;;;;;;22.00;42.80;;;;;;5127558;27;19927;-50
2022/06/10 12:13:52;;;;;;;;;;;22.00;42.90;;;;;;5162090;27;19949;-49
2022/06/10 12:16:18;;;;;;;;;;;22.10;42.70;;;;;;5164826;27;19922;-57
2022/06/10 12:18:46;;;;;;;;;;;22.00;42.40;;;;;;5166017;27;19966;-49
2022/06/10 12:21:17;;;;;;;;;;;20.50;45.10;;;;;;5161113;27;19929;-47
2022/06/10 12:23:45;;;;;;;;;;;19.90;45.90;;;;;;5169070;27;20305;-49
2022/06/10 12:26:13;;;;;;;;;;;20.80;44.60;;;;;;5166004;27;19927;-47
2022/06/10 12:28:45;;;;;;;;;;;21.60;42.90;;;;;;5166282;27;19929;-47
2022/06/10 12:31:11;;;;;;;;;;;21.90;42.30;;;;;;5171512;27;19926;-45
2022/06/10 12:33:41;;;;;;;;;;;21.90;42.10;;;;;;5166107;27;20461;-47
2022/06/10 12:36:08;;;;;;;;;;;22.00;41.90;;;;;;5143621;27;19924;-46
2022/06/10 12:38:38;;;;;;;;;;;22.00;42.00;;;;;;5152010;27;19923;-47
2022/06/10 12:41:05;;;;;;;;;;;21.80;42.20;;;;;;5145586;27;19937;-46
2022/06/10 12:43:33;;;;;;;;;;;21.40;42.40;;;;;;5147247;27;19923;-46
2022/06/10 12:45:58;;;;;;;;;;;21.30;41.70;;;;;;5150983;27;20018;-46
2022/06/10 12:48:31;;;;;;;;;;;21.50;42.70;;;;;;5166470;27;20301;-45
2022/06/10 12:51:00;;;;;;;;;;;21.70;43.30;;;;;;5152605;27;19923;-47
2022/06/10 12:53:44;;;;;;;;;;;21.90;42.80;;;;;;5166843;27;19922;-49
2022/06/10 12:56:15;;;;;;;;;;;22.00;42.60;;;;;;5166147;27;20071;-46
2022/06/10 12:58:42;;;;;;;;;;;22.00;42.60;;;;;;5168664;27;20359;-46
2022/06/10 13:01:13;;;;;;;;;;;22.10;42.30;;;;;;5165054;27;19988;-47
2022/06/10 13:03:40;;;;;;;;;;;22.10;42.20;;;;;;5165561;27;19927;-48
2022/06/10 13:06:25;;;;;;;;;;;22.20;42.00;;;;;;5170860;27;20378;-49
2022/06/10 13:08:52;;;;;;;;;;;22.20;41.60;;;;;;5165645;27;19952;-51
2022/06/10 13:11:36;;;;;;;;;;;20.60;44.50;;;;;;5165376;27;19922;-50
2022/06/10 13:14:09;;;;;;;;;;;19.80;46.40;;;;;;5170682;27;20396;-50
2022/06/10 13:16:36;;;;;;;;;;;21.10;43.70;;;;;;5148377;27;19923;-49
2022/06/10 13:19:02;;;;;;;;;;;21.70;42.60;;;;;;5166708;27;19929;-54
2022/06/10 13:21:29;;;;;;;;;;;21.90;42.10;;;;;;5150380;27;20359;-48
2022/06/10 13:23:58;;;;;;;;;;;22.10;41.70;;;;;;5148635;27;19922;-50
2022/06/10 13:26:24;;;;;;;;;;;22.20;41.60;;;;;;5166780;27;19930;-48
2022/06/10 13:28:50;;;;;;;;;;;22.20;41.70;;;;;;5170877;27;19927;-49
2022/06/10 13:31:16;;;;;;;;;;;22.20;41.70;;;;;;5166509;27;20017;-50
2022/06/10 13:34:11;;;;;;;;;;;22.20;41.90;;;;;;5167482;27;19950;-60
2022/06/10 13:36:42;;;;;;;;;;;22.20;42.00;;;;;;5146698;27;19927;-49
2022/06/10 13:39:15;;;;;;;;;;;22.10;41.90;;;;;;5165467;27;19952;-52
2022/06/10 13:41:49;;;;;;;;;;;22.20;41.80;;;;;;5164445;27;19962;-51
2022/06/10 13:44:21;;;;;;;;;;;21.90;41.30;;;;;;5152757;27;19923;-50
2022/06/10 13:46:48;;;;;;;;;;;20.40;44.70;;;;;;5164678;27;19927;-47
2022/06/10 13:49:16;;;;;;;;;;;19.80;45.50;;;;;;5166205;27;20373;-55
2022/06/10 13:51:49;;;;;;;;;;;20.70;44.00;;;;;;5169397;27;19923;-53
2022/06/10 13:54:19;;;;;;;;;;;21.40;42.50;;;;;;5161940;27;19923;-52
2022/06/10 13:56:45;;;;;;;;;;;21.80;41.70;;;;;;5168872;27;19933;-52
2022/06/10 13:59:40;;;;;;;;;;;21.90;41.70;;;;;;5163566;27;20016;-52
2022/06/10 14:02:13;;;;;;;;;;;21.90;41.70;;;;;;5139509;27;19945;-50
2022/06/10 14:04:39;;;;;;;;;;;22.00;41.50;;;;;;5167438;27;19923;-57
2022/06/10 14:07:12;;;;;;;;;;;22.10;41.30;;;;;;5166827;27;19967;-53
2022/06/10 14:09:38;;;;;;;;;;;22.20;41.10;;;;;;5163812;27;20017;-50
2022/06/10 14:12:04;;;;;;;;;;;22.20;41.10;;;;;;5167081;27;19922;-50
2022/06/10 14:14:30;;;;;;;;;;;22.20;41.10;;;;;;5162689;27;20025;-53
2022/06/10 14:17:01;;;;;;;;;;;22.20;41.10;;;;;;5163926;27;19929;-49
2022/06/10 14:19:26;;;;;;;;;;;22.20;40.60;;;;;;5169024;27;20350;-50
2022/06/10 14:21:52;;;;;;;;;;;20.80;43.20;;;;;;5163509;27;19923;-53
2022/06/10 14:24:29;;;;;;;;;;;20.10;44.50;;;;;;5145396;27;20330;-48
2022/06/10 14:27:10;;;;;;;;;;;20.70;43.40;;;;;;5169022;27;19923;-52
2022/06/10 14:29:45;;;;;;;;;;;21.60;41.40;;;;;;5162131;27;19923;-51
2022/06/10 14:32:32;;;;;;;;;;;22.00;40.60;;;;;;5162005;27;20832;-48
2022/06/10 14:34:58;;;;;;;;;;;22.10;40.50;;;;;;5168186;27;20257;-48
2022/06/10 14:37:32;;;;;;;;;;;22.10;40.50;;;;;;5144365;27;19923;-49
2022/06/10 14:40:10;;;;;;;;;;;22.20;40.40;;;;;;5143833;27;19923;-51
2022/06/10 14:42:36;;;;;;;;;;;22.20;40.40;;;;;;5168959;27;19933;-47